»·PEaware :: N478GF L88-KSBP

N478GF :: L88-KSBP

FLIGHT INFORMATION

Flight Status: Arrived
Operator: Privately registered:
United States
More flights under this callsign
Pilot: Aaron H. (20539)
Aircraft: CESSNA 172 SKYHAWK
(C172)
More flights by this aircraft type
Origin: L88 New Cuyama
United States
Destination: KSBP San Luis Co Regl
United States
More flights between these airports :: More routes between these airports
Route:
File this flight plan on PilotEdge
Remarks:
Altitude:
(Current/Filed)
5,500ft
Speed:
(Current/Filed)
130kts
Departed: 25-Sep-18 12:38 PM
Arrived: 25-Sep-18 01:08 PM
Distance/Time
Traveled:
50nm/0:29
Distance/Time
To Go:
Arrived

Flight Plot

Page will automatically refresh every two minutes.


Map Options




Map Legend


Flown Route
Filed Route
Departure Airport
Arrival Airport
Navaid (VOR, NDB)
Fix

Horizontal Profiles

Position Reports

Time Latitude Longitude Heading Altitude Ground
Speed
25-Sep-18 12:22 34.942630 -119.690579 25 2156ft 0kts
25-Sep-18 12:23 34.942630 -119.690579 25 2156ft 0kts
25-Sep-18 12:24 34.942630 -119.690579 25 2156ft 0kts
25-Sep-18 12:25 34.942630 -119.690579 25 2156ft 0kts
25-Sep-18 12:26 34.942630 -119.690579 25 2156ft 0kts
25-Sep-18 12:27 34.942630 -119.690579 25 2156ft 0kts
25-Sep-18 12:28 34.942630 -119.690579 25 2156ft 0kts
25-Sep-18 12:29 34.942630 -119.690579 25 2156ft 0kts
25-Sep-18 12:30 34.942630 -119.690579 25 2156ft 0kts
25-Sep-18 12:31 34.942630 -119.690579 24 2156ft 0kts
25-Sep-18 12:32 34.942926 -119.690790 306 2155ft 1kts
25-Sep-18 12:33 34.942804 -119.691121 216 2155ft 0kts
25-Sep-18 12:34 34.942803 -119.691121 215 2155ft 0kts
25-Sep-18 12:35 34.942804 -119.691121 216 2155ft 0kts
25-Sep-18 12:36 34.942804 -119.691121 216 2155ft 0kts
25-Sep-18 12:37 34.942804 -119.691121 216 2155ft 0kts
25-Sep-18 12:38 34.942804 -119.691121 216 2155ft 0kts
25-Sep-18 12:39 34.942305 -119.691347 113 2155ft 0kts
25-Sep-18 12:40 34.936910 -119.678251 117 2527ft 72kts
25-Sep-18 12:41 34.928642 -119.689942 284 3265ft 69kts
25-Sep-18 12:42 34.938262 -119.712438 297 3945ft 77kts
25-Sep-18 12:43 34.949840 -119.734499 296 4613ft 78kts
25-Sep-18 12:44 34.963759 -119.760192 302 5248ft 95kts
25-Sep-18 12:45 34.981734 -119.788892 301 5518ft 115kts
25-Sep-18 12:46 35.000687 -119.822556 295 5424ft 127kts
25-Sep-18 12:47 35.018070 -119.858765 297 5444ft 120kts
25-Sep-18 12:48 35.034562 -119.894981 294 5449ft 123kts
25-Sep-18 12:49 35.050971 -119.931591 294 5450ft 122kts
25-Sep-18 12:50 35.067322 -119.968099 294 5453ft 122kts
25-Sep-18 12:51 35.083500 -120.004337 294 5456ft 121kts
25-Sep-18 12:52 35.099132 -120.040154 291 5462ft 119kts
25-Sep-18 12:53 35.109309 -120.078198 283 5466ft 117kts
25-Sep-18 12:54 35.118414 -120.116374 288 5468ft 117kts
25-Sep-18 12:55 35.124176 -120.157112 283 5474ft 123kts
25-Sep-18 12:56 35.129835 -120.198648 283 5476ft 124kts
25-Sep-18 12:57 35.135556 -120.240551 283 5478ft 125kts
25-Sep-18 12:58 35.140652 -120.278924 283 5477ft 103kts
25-Sep-18 12:59 35.144926 -120.312651 283 5478ft 98kts
25-Sep-18 13:00 35.149670 -120.340033 283 5422ft 99kts
25-Sep-18 13:01 35.155930 -120.372275 284 5420ft 95kts
25-Sep-18 13:02 35.166604 -120.407823 293 4748ft 118kts
25-Sep-18 13:03 35.180134 -120.444300 295 4100ft 118kts
25-Sep-18 13:04 35.191257 -120.481086 290 3564ft 114kts
25-Sep-18 13:05 35.204371 -120.516116 297 2909ft 113kts
25-Sep-18 13:06 35.218976 -120.549189 299 2132ft 112kts
25-Sep-18 13:07 35.228572 -120.580994 281 1921ft 102kts
25-Sep-18 13:08 35.223465 -120.615754 275 945ft 101kts
25-Sep-18 13:09 35.236452 -120.639546 305 193ft 54kts
25-Sep-18 13:10 35.239849 -120.644044 46 175ft 1kts
25-Sep-18 13:11 35.239874 -120.644013 46 175ft 0kts
25-Sep-18 13:12 35.239937 -120.643866 76 176ft 8kts
25-Sep-18 13:13 35.239513 -120.642439 31 181ft 0kts

Navigation Log

Ident Type
Flight plan parsing failed, navigation log unavailable